| time (UTC) | temp F | wind direction | speed knots | gust knots | rain 1hr in | rain 24hr in | rain mn in | humidity % | barometer mb |
| 20260508100009 | 40 | 170 | 0.0 | 3.5 | 0.00 | 0.06 | 0.00 | 86 | 1003.8 |
| 20260508094512 | 39 | 360 | 0.0 | 1.7 | 0.00 | 0.07 | 0.00 | 86 | 1003.6 |
| 20260508093012 | 39 | 360 | 0.0 | 1.7 | 0.00 | 0.07 | 0.00 | 85 | 1003.4 |
| 20260508091505 | 39 | 360 | 0.0 | 1.7 | 0.00 | 0.08 | 0.00 | 83 | 1003.3 |
| 20260508090009 | 40 | 360 | 0.0 | 1.7 | 0.00 | 0.13 | 0.00 | 82 | 1003.2 |
| 20260508084509 | 41 | 360 | 0.0 | 1.7 | 0.00 | 0.14 | 0.00 | 82 | 1003.2 |
| 20260508083011 | 41 | 360 | 0.0 | 3.5 | 0.00 | 0.14 | 0.00 | 80 | 1003.2 |
| 20260508081533 | 43 | 360 | 0.9 | 1.7 | 0.00 | 0.15 | 0.00 | 79 | 1003.2 |
| 20260508080004 | 43 | 360 | 0.0 | 2.6 | 0.00 | 0.16 | 0.00 | 81 | 1003.2 |
| 20260508074506 | 44 | 360 | 0.9 | 4.3 | 0.00 | 0.17 | 0.00 | 76 | 1003.2 |
| 20260508073015 | 45 | 360 | 2.6 | 5.2 | 0.00 | 0.17 | 0.00 | 76 | 1003.1 |
| 20260508071534 | 45 | 360 | 0.9 | 4.3 | 0.00 | 0.18 | 0.00 | 75 | 1003.1 |
| 20260508070004 | 46 | 360 | 1.7 | 5.2 | 0.00 | 0.19 | 0.00 | 74 | 1003.1 |
| 20260508064510 | 46 | 360 | 2.6 | 7.0 | 0.00 | 0.23 | 0.00 | 74 | 1003.1 |
| 20260508063023 | 47 | 360 | 1.7 | 7.0 | 0.00 | 0.27 | 0.00 | 76 | 1003.1 |
| 20260508061517 | 47 | 360 | 0.0 | 1.7 | 0.00 | 0.30 | 0.00 | 81 | 1003.1 |
| 20260508060004 | 48 | 360 | 0.0 | 1.7 | 0.00 | 0.35 | 0.00 | 82 | 1003.2 |
| 20260508054508 | 49 | 360 | 0.0 | 1.7 | 0.00 | 0.38 | 0.00 | 81 | 1003.4 |
| 20260508053010 | 49 | 360 | 0.0 | 0.0 | 0.00 | 0.43 | 0.00 | 81 | 1003.6 |
| 20260508051511 | 50 | 360 | 0.0 | 0.0 | 0.00 | 0.45 | 0.00 | 80 | 1003.9 |
| 20260508050017 | 49 | 291 | 0.0 | 1.7 | 0.00 | 0.47 | 0.00 | 79 | 1004.0 |
| 20260508044504 | 50 | 291 | 0.0 | 1.7 | 0.00 | 0.48 | 0.00 | 76 | 1004.1 |
| 20260508043010 | 51 | 291 | 0.9 | 1.7 | 0.00 | 0.50 | 0.00 | 73 | 1004.0 |
| 20260508041511 | 51 | 325 | 0.9 | 2.6 | 0.00 | 0.51 | 0.00 | 72 | 1004.0 |
| 20260508040018 | 51 | 24 | 0.0 | 4.3 | 0.00 | 0.52 | 0.00 | 72 | 1003.8 |
| 20260508034519 | 51 | 352 | 0.9 | 3.5 | 0.00 | 0.55 | 0.00 | 72 | 1003.9 |
| 20260508033006 | 51 | 275 | 0.9 | 3.5 | 0.00 | 0.61 | 0.00 | 71 | 1003.8 |
| 20260508024532 | 51 | 339 | 3.5 | 9.6 | 0.00 | 0.63 | 0.62 | 72 | 1003.5 |
| 20260508023027 | 50 | 302 | 5.2 | 13.9 | 0.00 | 0.63 | 0.62 | 73 | 1003.4 |
| 20260508021509 | 49 | 215 | 5.2 | 10.4 | 0.00 | 0.63 | 0.62 | 78 | 1003.2 |
| 20260508020012 | 48 | 200 | 0.0 | 0.0 | 0.00 | 0.63 | 0.62 | 85 | 1003.3 |
| 20260508014520 | 48 | 360 | 0.0 | 0.9 | 0.00 | 0.63 | 0.62 | 84 | 1003.2 |
| 20260508013022 | 48 | 360 | 0.9 | 1.7 | 0.00 | 0.63 | 0.62 | 82 | 1003.1 |
| 20260508011522 | 50 | 360 | 1.7 | 1.7 | 0.00 | 0.63 | 0.62 | 80 | 1003.0 |
| 20260508010012 | 51 | 360 | 0.0 | 0.0 | 0.00 | 0.64 | 0.62 | 80 | 1002.8 |
| 20260508004515 | 52 | 200 | 0.0 | 1.7 | 0.00 | 0.65 | 0.62 | 79 | 1002.8 |
| 20260508003020 | 52 | 200 | 0.0 | 1.7 | 0.00 | 0.65 | 0.62 | 79 | 1002.8 |
| 20260508001523 | 52 | 200 | 0.0 | 1.7 | 0.00 | 0.65 | 0.62 | 78 | 1002.8 |
| 20260508000025 | 52 | 200 | 0.9 | 2.6 | 0.00 | 0.65 | 0.62 | 76 | 1002.8 |
| 20260507234516 | 53 | 185 | 1.7 | 3.5 | 0.00 | 0.65 | 0.62 | 75 | 1002.6 |
| 20260507233033 | 54 | 152 | 1.7 | 3.5 | 0.00 | 0.65 | 0.62 | 72 | 1002.5 |
| 20260507231534 | 56 | 148 | 0.9 | 3.5 | 0.00 | 0.65 | 0.62 | 69 | 1002.2 |
| 20260507230025 | 57 | 171 | 0.9 | 3.5 | 0.00 | 0.65 | 0.62 | 67 | 1002.1 |
| 20260507224532 | 59 | 175 | 1.7 | 4.3 | 0.00 | 0.65 | 0.62 | 63 | 1002.1 |
| 20260507223028 | 61 | 191 | 1.7 | 6.1 | 0.00 | 0.65 | 0.62 | 58 | 1002.1 |
| 20260507221536 | 63 | 204 | 2.6 | 3.5 | 0.00 | 0.65 | 0.62 | 49 | 1001.9 |
| 20260507220028 | 63 | 261 | 1.7 | 5.2 | 0.00 | 0.65 | 0.62 | 44 | 1001.8 |
| 20260507214506 | 63 | 248 | 2.6 | 6.1 | 0.00 | 0.65 | 0.62 | 43 | 1001.7 |
| 20260507213031 | 63 | 276 | 0.9 | 3.5 | 0.00 | 0.65 | 0.62 | 45 | 1001.6 |
| 20260507211528 | 63 | 332 | 0.9 | 2.6 | 0.00 | 0.65 | 0.62 | 46 | 1001.6 |
| 20260507210022 | 61 | 270 | 1.7 | 7.8 | 0.00 | 0.65 | 0.62 | 46 | 1001.6 |
| 20260507204508 | 62 | 263 | 3.5 | 7.0 | 0.00 | 0.65 | 0.62 | 47 | 1001.6 |
| 20260507203010 | 62 | 248 | 0.9 | 7.0 | 0.00 | 0.65 | 0.62 | 50 | 1001.4 |
| 20260507201518 | 62 | 264 | 4.3 | 11.3 | 0.00 | 0.65 | 0.62 | 47 | 1001.3 |
| 20260507200020 | 64 | 226 | 2.6 | 8.7 | 0.00 | 0.65 | 0.62 | 48 | 1001.4 |
| 20260507194523 | 63 | 334 | 3.5 | 9.6 | 0.00 | 0.65 | 0.62 | 47 | 1001.4 |
| 20260507193010 | 63 | 333 | 2.6 | 7.0 | 0.00 | 0.65 | 0.62 | 48 | 1001.4 |
| 20260507191513 | 63 | 221 | 3.5 | 9.6 | 0.00 | 0.65 | 0.62 | 49 | 1001.4 |
| 20260507190016 | 62 | 329 | 4.3 | 9.6 | 0.00 | 0.65 | 0.62 | 50 | 1001.4 |
| 20260507184522 | 63 | 279 | 3.5 | 8.7 | 0.00 | 0.65 | 0.62 | 54 | 1001.3 |
| 20260507183012 | 61 | 294 | 2.6 | 10.4 | 0.00 | 0.65 | 0.62 | 58 | 1001.4 |
| 20260507181510 | 60 | 274 | 2.6 | 7.0 | 0.00 | 0.65 | 0.62 | 62 | 1001.5 |
| 20260507180022 | 61 | 306 | 1.7 | 7.0 | 0.00 | 0.65 | 0.62 | 62 | 1001.6 |
| 20260507174521 | 60 | 229 | 4.3 | 9.6 | 0.00 | 0.65 | 0.62 | 67 | 1001.8 |
| 20260507173031 | 58 | 221 | 4.3 | 7.8 | 0.00 | 0.65 | 0.62 | 73 | 1001.8 |
| 20260507171509 | 58 | 230 | 1.7 | 8.7 | 0.00 | 0.65 | 0.62 | 76 | 1001.9 |
| 20260507170015 | 57 | 227 | 1.7 | 7.8 | 0.00 | 0.65 | 0.62 | 80 | 1002.0 |
| 20260507164524 | 57 | 217 | 2.6 | 7.8 | 0.00 | 0.65 | 0.62 | 79 | 1002.5 |
| 20260507163022 | 57 | 284 | 5.2 | 8.7 | 0.00 | 0.65 | 0.62 | 86 | 1002.7 |
| 20260507161525 | 55 | 203 | 0.9 | 6.1 | 0.00 | 0.65 | 0.62 | 89 | 1002.9 |
| 20260507160013 | 54 | 252 | 1.7 | 4.3 | 0.00 | 0.65 | 0.62 | 94 | 1002.9 |
| 20260507154515 | 51 | 279 | 1.7 | 4.3 | 0.00 | 0.65 | 0.62 | 92 | 1003.1 |
| 20260507153020 | 51 | 246 | 2.6 | 5.2 | 0.00 | 0.65 | 0.62 | 93 | 1003.3 |
| 20260507151525 | 50 | 263 | 1.7 | 4.3 | 0.00 | 0.65 | 0.62 | 94 | 1003.8 |
| 20260507150028 | 49 | 192 | 0.9 | 3.5 | 0.00 | 0.65 | 0.62 | 94 | 1003.2 |
| 20260507144522 | 49 | 240 | 2.6 | 6.1 | 0.00 | 0.65 | 0.62 | 94 | 1004.2 |
| 20260507143020 | 49 | 257 | 0.9 | 4.3 | 0.00 | 0.65 | 0.62 | 96 | 1003.6 |
| 20260507141523 | 49 | 202 | 0.9 | 1.7 | 0.01 | 0.65 | 0.62 | 97 | 1003.3 |
| 20260507140032 | 49 | 188 | 1.7 | 4.3 | 0.03 | 0.65 | 0.62 | 97 | 1003.9 |
| 20260507134508 | 48 | 212 | 1.7 | 5.2 | 0.03 | 0.65 | 0.62 | 97 | 1003.6 |
| 20260507133002 | 48 | 196 | 2.6 | 4.3 | 0.04 | 0.65 | 0.62 | 97 | 1003.4 |
| 20260507131504 | 48 | 244 | 0.9 | 4.3 | 0.04 | 0.64 | 0.61 | 97 | 1003.3 |
| 20260507124508 | 48 | 209 | 3.5 | 5.2 | 0.02 | 0.62 | 0.58 | 96 | 1004.1 |
| 20260507123000 | 48 | 213 | 2.6 | 5.2 | 0.01 | 0.61 | 0.58 | 96 | 1003.8 |
| 20260507121518 | 48 | 212 | 2.6 | 7.0 | 0.00 | 0.60 | 0.57 | 96 | 1003.9 |
| 20260507120007 | 48 | 203 | 2.6 | 4.3 | 0.00 | 0.60 | 0.57 | 97 | 1003.6 |
| 20260507114525 | 47 | 194 | 2.6 | 5.2 | 0.00 | 0.60 | 0.57 | 96 | 1003.6 |
| 20260507113015 | 47 | 254 | 2.6 | 5.2 | 0.00 | 0.60 | 0.57 | 96 | 1003.4 |
| 20260507111503 | 47 | 217 | 4.3 | 7.0 | 0.00 | 0.60 | 0.57 | 96 | 1003.7 |
| 20260507110024 | 47 | 219 | 4.3 | 7.8 | 0.01 | 0.60 | 0.57 | 96 | 1003.8 |
| 20260507104523 | 48 | 187 | 2.6 | 7.0 | 0.02 | 0.60 | 0.57 | 96 | 1003.9 |
| 20260507103012 | 48 | 150 | 1.7 | 6.1 | 0.02 | 0.60 | 0.57 | 95 | 1003.3 |
| 20260507101517 | 48 | 184 | 0.9 | 5.2 | 0.03 | 0.60 | 0.57 | 95 | 1003.0 |